sensor_id;sensor_type;location;lat;lon;timestamp;P1;durP1;ratioP1;P2;durP2;ratioP2
58376;SDS011;58852;43.460;19.812;2022-08-19T00:01:08;14.82;;;8.57;;
58376;SDS011;58852;43.460;19.812;2022-08-19T00:03:34;13.30;;;10.02;;
58376;SDS011;58852;43.460;19.812;2022-08-19T00:05:59;13.75;;;8.90;;
58376;SDS011;58852;43.460;19.812;2022-08-19T00:08:25;12.35;;;8.40;;
58376;SDS011;58852;43.460;19.812;2022-08-19T00:10:51;13.48;;;9.27;;
58376;SDS011;58852;43.460;19.812;2022-08-19T00:13:17;14.65;;;8.73;;
58376;SDS011;58852;43.460;19.812;2022-08-19T00:15:43;18.42;;;9.52;;
58376;SDS011;58852;43.460;19.812;2022-08-19T00:18:09;15.88;;;9.52;;
58376;SDS011;58852;43.460;19.812;2022-08-19T00:20:36;12.32;;;8.48;;
58376;SDS011;58852;43.460;19.812;2022-08-19T00:23:05;13.38;;;8.60;;
58376;SDS011;58852;43.460;19.812;2022-08-19T00:25:32;13.15;;;8.50;;
58376;SDS011;58852;43.460;19.812;2022-08-19T00:27:58;15.13;;;8.95;;
58376;SDS011;58852;43.460;19.812;2022-08-19T00:30:24;15.18;;;8.93;;
58376;SDS011;58852;43.460;19.812;2022-08-19T00:32:52;12.65;;;9.50;;
58376;SDS011;58852;43.460;19.812;2022-08-19T00:35:21;17.88;;;9.10;;
58376;SDS011;58852;43.460;19.812;2022-08-19T00:37:48;13.80;;;8.43;;
58376;SDS011;58852;43.460;19.812;2022-08-19T00:40:14;18.55;;;8.60;;
58376;SDS011;58852;43.460;19.812;2022-08-19T00:42:42;13.80;;;9.02;;
58376;SDS011;58852;43.460;19.812;2022-08-19T00:45:14;11.38;;;9.20;;
58376;SDS011;58852;43.460;19.812;2022-08-19T00:47:43;15.55;;;8.40;;
58376;SDS011;58852;43.460;19.812;2022-08-19T00:50:09;11.52;;;8.93;;
58376;SDS011;58852;43.460;19.812;2022-08-19T00:52:40;11.35;;;8.63;;
58376;SDS011;58852;43.460;19.812;2022-08-19T00:55:10;11.32;;;7.68;;
58376;SDS011;58852;43.460;19.812;2022-08-19T00:57:41;13.88;;;9.43;;
58376;SDS011;58852;43.460;19.812;2022-08-19T01:00:12;18.05;;;8.80;;
58376;SDS011;58852;43.460;19.812;2022-08-19T01:02:42;13.32;;;8.15;;
58376;SDS011;58852;43.460;19.812;2022-08-19T01:05:13;13.90;;;8.50;;
58376;SDS011;58852;43.460;19.812;2022-08-19T01:07:46;12.52;;;9.35;;
58376;SDS011;58852;43.460;19.812;2022-08-19T01:10:18;14.50;;;8.77;;
58376;SDS011;58852;43.460;19.812;2022-08-19T01:12:48;13.48;;;9.90;;
58376;SDS011;58852;43.460;19.812;2022-08-19T01:15:16;13.52;;;8.57;;
58376;SDS011;58852;43.460;19.812;2022-08-19T01:17:44;14.00;;;9.27;;
58376;SDS011;58852;43.460;19.812;2022-08-19T01:20:16;15.77;;;9.43;;
58376;SDS011;58852;43.460;19.812;2022-08-19T01:22:48;13.68;;;8.00;;
58376;SDS011;58852;43.460;19.812;2022-08-19T01:25:18;15.65;;;8.82;;
58376;SDS011;58852;43.460;19.812;2022-08-19T01:27:47;14.07;;;10.00;;
58376;SDS011;58852;43.460;19.812;2022-08-19T01:30:16;15.60;;;9.20;;
58376;SDS011;58852;43.460;19.812;2022-08-19T01:32:44;19.77;;;10.60;;
58376;SDS011;58852;43.460;19.812;2022-08-19T01:35:11;16.75;;;10.65;;
58376;SDS011;58852;43.460;19.812;2022-08-19T01:37:48;15.57;;;9.90;;
58376;SDS011;58852;43.460;19.812;2022-08-19T01:40:18;16.50;;;10.10;;
58376;SDS011;58852;43.460;19.812;2022-08-19T01:42:47;12.13;;;8.45;;
58376;SDS011;58852;43.460;19.812;2022-08-19T01:45:14;15.32;;;9.10;;
58376;SDS011;58852;43.460;19.812;2022-08-19T01:47:40;13.32;;;8.43;;
58376;SDS011;58852;43.460;19.812;2022-08-19T01:50:07;15.85;;;9.80;;
58376;SDS011;58852;43.460;19.812;2022-08-19T01:52:35;15.02;;;9.20;;
58376;SDS011;58852;43.460;19.812;2022-08-19T01:55:02;11.75;;;8.40;;
58376;SDS011;58852;43.460;19.812;2022-08-19T01:57:28;12.48;;;8.93;;
58376;SDS011;58852;43.460;19.812;2022-08-19T01:59:54;16.65;;;8.27;;
58376;SDS011;58852;43.460;19.812;2022-08-19T02:02:21;11.90;;;8.00;;
58376;SDS011;58852;43.460;19.812;2022-08-19T02:04:48;10.35;;;7.20;;
58376;SDS011;58852;43.460;19.812;2022-08-19T02:07:14;11.80;;;8.35;;
58376;SDS011;58852;43.460;19.812;2022-08-19T02:09:40;20.85;;;8.57;;
58376;SDS011;58852;43.460;19.812;2022-08-19T02:12:06;14.10;;;7.93;;
58376;SDS011;58852;43.460;19.812;2022-08-19T02:14:34;12.93;;;8.40;;
58376;SDS011;58852;43.460;19.812;2022-08-19T02:17:00;15.43;;;8.77;;
58376;SDS011;58852;43.460;19.812;2022-08-19T02:19:26;14.02;;;8.52;;
58376;SDS011;58852;43.460;19.812;2022-08-19T02:21:52;16.17;;;8.48;;
58376;SDS011;58852;43.460;19.812;2022-08-19T02:24:18;13.57;;;8.27;;
58376;SDS011;58852;43.460;19.812;2022-08-19T02:26:44;15.20;;;8.23;;
58376;SDS011;58852;43.460;19.812;2022-08-19T02:29:11;15.60;;;8.45;;
58376;SDS011;58852;43.460;19.812;2022-08-19T02:31:37;17.00;;;9.00;;
58376;SDS011;58852;43.460;19.812;2022-08-19T02:34:03;12.73;;;8.13;;
58376;SDS011;58852;43.460;19.812;2022-08-19T02:36:29;10.98;;;7.93;;
58376;SDS011;58852;43.460;19.812;2022-08-19T02:38:56;20.13;;;8.55;;
58376;SDS011;58852;43.460;19.812;2022-08-19T02:41:23;13.13;;;7.47;;
58376;SDS011;58852;43.460;19.812;2022-08-19T02:43:49;14.48;;;8.48;;
58376;SDS011;58852;43.460;19.812;2022-08-19T02:48:43;14.32;;;8.20;;
58376;SDS011;58852;43.460;19.812;2022-08-19T02:51:09;11.60;;;7.60;;
58376;SDS011;58852;43.460;19.812;2022-08-19T02:53:41;12.77;;;8.10;;
58376;SDS011;58852;43.460;19.812;2022-08-19T02:56:07;12.25;;;7.75;;
58376;SDS011;58852;43.460;19.812;2022-08-19T02:58:33;9.25;;;6.85;;
58376;SDS011;58852;43.460;19.812;2022-08-19T03:00:59;12.23;;;8.55;;
58376;SDS011;58852;43.460;19.812;2022-08-19T03:03:26;12.70;;;8.18;;
58376;SDS011;58852;43.460;19.812;2022-08-19T03:06:01;11.93;;;8.02;;
58376;SDS011;58852;43.460;19.812;2022-08-19T03:08:27;14.23;;;8.13;;
58376;SDS011;58852;43.460;19.812;2022-08-19T03:10:54;16.27;;;7.70;;
58376;SDS011;58852;43.460;19.812;2022-08-19T03:13:21;9.23;;;7.82;;
58376;SDS011;58852;43.460;19.812;2022-08-19T03:15:48;16.05;;;7.97;;
58376;SDS011;58852;43.460;19.812;2022-08-19T03:18:14;13.10;;;8.45;;
58376;SDS011;58852;43.460;19.812;2022-08-19T03:20:42;13.98;;;8.80;;
58376;SDS011;58852;43.460;19.812;2022-08-19T03:23:08;17.27;;;8.85;;
58376;SDS011;58852;43.460;19.812;2022-08-19T03:25:41;13.05;;;7.60;;
58376;SDS011;58852;43.460;19.812;2022-08-19T03:28:09;11.80;;;8.55;;
58376;SDS011;58852;43.460;19.812;2022-08-19T03:30:35;13.82;;;8.32;;
58376;SDS011;58852;43.460;19.812;2022-08-19T03:33:01;14.27;;;8.30;;
58376;SDS011;58852;43.460;19.812;2022-08-19T03:35:27;12.60;;;8.48;;
58376;SDS011;58852;43.460;19.812;2022-08-19T03:37:53;15.20;;;8.43;;
58376;SDS011;58852;43.460;19.812;2022-08-19T03:40:21;11.50;;;7.90;;
58376;SDS011;58852;43.460;19.812;2022-08-19T03:42:47;14.65;;;8.30;;
58376;SDS011;58852;43.460;19.812;2022-08-19T03:45:15;17.70;;;8.57;;
58376;SDS011;58852;43.460;19.812;2022-08-19T03:47:41;10.38;;;8.02;;
58376;SDS011;58852;43.460;19.812;2022-08-19T03:50:07;9.30;;;7.50;;
58376;SDS011;58852;43.460;19.812;2022-08-19T03:52:34;14.43;;;8.73;;
58376;SDS011;58852;43.460;19.812;2022-08-19T03:55:01;13.13;;;8.27;;
58376;SDS011;58852;43.460;19.812;2022-08-19T03:57:27;15.02;;;8.13;;
58376;SDS011;58852;43.460;19.812;2022-08-19T03:59:53;16.45;;;8.48;;
58376;SDS011;58852;43.460;19.812;2022-08-19T04:02:19;10.27;;;8.02;;
58376;SDS011;58852;43.460;19.812;2022-08-19T04:04:46;12.18;;;8.23;;
58376;SDS011;58852;43.460;19.812;2022-08-19T04:07:13;14.00;;;8.15;;
58376;SDS011;58852;43.460;19.812;2022-08-19T04:09:46;13.30;;;8.15;;
58376;SDS011;58852;43.460;19.812;2022-08-19T04:12:12;14.60;;;7.68;;
58376;SDS011;58852;43.460;19.812;2022-08-19T04:14:38;14.10;;;9.27;;
58376;SDS011;58852;43.460;19.812;2022-08-19T04:17:04;14.80;;;9.07;;
58376;SDS011;58852;43.460;19.812;2022-08-19T04:19:31;14.75;;;8.48;;
58376;SDS011;58852;43.460;19.812;2022-08-19T04:21:58;16.05;;;9.20;;
58376;SDS011;58852;43.460;19.812;2022-08-19T04:24:24;16.85;;;8.32;;
58376;SDS011;58852;43.460;19.812;2022-08-19T04:26:50;15.38;;;9.23;;
58376;SDS011;58852;43.460;19.812;2022-08-19T04:29:18;14.73;;;8.55;;
58376;SDS011;58852;43.460;19.812;2022-08-19T04:31:46;10.68;;;7.70;;
58376;SDS011;58852;43.460;19.812;2022-08-19T04:34:14;13.65;;;8.77;;
58376;SDS011;58852;43.460;19.812;2022-08-19T04:36:41;13.93;;;9.07;;
58376;SDS011;58852;43.460;19.812;2022-08-19T04:39:14;15.10;;;9.82;;
58376;SDS011;58852;43.460;19.812;2022-08-19T04:41:40;11.02;;;8.32;;
58376;SDS011;58852;43.460;19.812;2022-08-19T04:44:25;15.25;;;10.40;;
58376;SDS011;58852;43.460;19.812;2022-08-19T04:46:55;13.32;;;8.65;;
58376;SDS011;58852;43.460;19.812;2022-08-19T04:49:22;14.63;;;9.43;;
58376;SDS011;58852;43.460;19.812;2022-08-19T04:51:48;18.70;;;9.30;;
58376;SDS011;58852;43.460;19.812;2022-08-19T04:54:15;16.45;;;9.55;;
58376;SDS011;58852;43.460;19.812;2022-08-19T04:56:42;15.98;;;8.98;;
58376;SDS011;58852;43.460;19.812;2022-08-19T04:59:08;13.15;;;9.40;;
58376;SDS011;58852;43.460;19.812;2022-08-19T05:01:36;14.63;;;9.82;;
58376;SDS011;58852;43.460;19.812;2022-08-19T05:04:03;18.80;;;9.60;;
58376;SDS011;58852;43.460;19.812;2022-08-19T05:06:30;10.60;;;7.78;;
58376;SDS011;58852;43.460;19.812;2022-08-19T05:09:03;13.80;;;8.77;;
58376;SDS011;58852;43.460;19.812;2022-08-19T05:11:34;12.45;;;9.57;;
58376;SDS011;58852;43.460;19.812;2022-08-19T05:14:04;13.30;;;9.35;;
58376;SDS011;58852;43.460;19.812;2022-08-19T05:16:30;11.48;;;8.48;;
58376;SDS011;58852;43.460;19.812;2022-08-19T05:18:56;14.70;;;8.80;;
58376;SDS011;58852;43.460;19.812;2022-08-19T05:21:42;12.77;;;8.57;;
58376;SDS011;58852;43.460;19.812;2022-08-19T05:24:27;15.73;;;7.82;;
58376;SDS011;58852;43.460;19.812;2022-08-19T05:26:54;16.10;;;8.10;;
58376;SDS011;58852;43.460;19.812;2022-08-19T05:29:22;14.27;;;7.45;;
58376;SDS011;58852;43.460;19.812;2022-08-19T05:31:49;16.90;;;7.63;;
58376;SDS011;58852;43.460;19.812;2022-08-19T05:34:16;16.02;;;7.22;;
58376;SDS011;58852;43.460;19.812;2022-08-19T05:36:43;12.80;;;8.55;;
58376;SDS011;58852;43.460;19.812;2022-08-19T05:39:13;12.13;;;7.80;;
58376;SDS011;58852;43.460;19.812;2022-08-19T05:41:44;13.52;;;7.75;;
58376;SDS011;58852;43.460;19.812;2022-08-19T05:44:10;15.68;;;7.15;;
58376;SDS011;58852;43.460;19.812;2022-08-19T05:46:36;11.52;;;8.05;;
58376;SDS011;58852;43.460;19.812;2022-08-19T05:49:06;10.00;;;7.47;;
58376;SDS011;58852;43.460;19.812;2022-08-19T05:51:33;11.55;;;7.70;;
58376;SDS011;58852;43.460;19.812;2022-08-19T05:54:00;15.98;;;7.82;;
58376;SDS011;58852;43.460;19.812;2022-08-19T05:56:26;11.88;;;7.68;;
58376;SDS011;58852;43.460;19.812;2022-08-19T05:58:53;13.35;;;8.38;;
58376;SDS011;58852;43.460;19.812;2022-08-19T06:01:19;13.63;;;9.65;;
58376;SDS011;58852;43.460;19.812;2022-08-19T06:03:46;14.20;;;10.00;;
58376;SDS011;58852;43.460;19.812;2022-08-19T06:06:13;12.00;;;7.22;;
58376;SDS011;58852;43.460;19.812;2022-08-19T06:08:40;13.52;;;7.18;;
58376;SDS011;58852;43.460;19.812;2022-08-19T06:13:46;11.45;;;7.93;;
58376;SDS011;58852;43.460;19.812;2022-08-19T06:16:16;12.23;;;7.43;;
58376;SDS011;58852;43.460;19.812;2022-08-19T06:18:47;11.80;;;6.95;;
58376;SDS011;58852;43.460;19.812;2022-08-19T06:21:13;11.40;;;7.70;;
58376;SDS011;58852;43.460;19.812;2022-08-19T06:23:39;13.13;;;7.78;;
58376;SDS011;58852;43.460;19.812;2022-08-19T06:26:06;17.13;;;7.88;;
58376;SDS011;58852;43.460;19.812;2022-08-19T06:28:32;14.07;;;8.93;;
58376;SDS011;58852;43.460;19.812;2022-08-19T06:30:59;16.20;;;8.90;;
58376;SDS011;58852;43.460;19.812;2022-08-19T06:33:25;12.55;;;6.82;;
58376;SDS011;58852;43.460;19.812;2022-08-19T06:35:51;18.20;;;8.98;;
58376;SDS011;58852;43.460;19.812;2022-08-19T06:38:17;12.13;;;7.53;;
58376;SDS011;58852;43.460;19.812;2022-08-19T06:40:47;19.35;;;6.97;;
58376;SDS011;58852;43.460;19.812;2022-08-19T06:43:13;17.27;;;8.75;;
58376;SDS011;58852;43.460;19.812;2022-08-19T06:45:40;10.90;;;7.60;;
58376;SDS011;58852;43.460;19.812;2022-08-19T06:48:07;14.38;;;8.32;;
58376;SDS011;58852;43.460;19.812;2022-08-19T06:50:33;10.38;;;8.25;;
58376;SDS011;58852;43.460;19.812;2022-08-19T06:52:59;19.15;;;10.68;;
58376;SDS011;58852;43.460;19.812;2022-08-19T06:55:25;15.57;;;9.70;;
58376;SDS011;58852;43.460;19.812;2022-08-19T06:57:53;12.23;;;7.38;;
58376;SDS011;58852;43.460;19.812;2022-08-19T07:00:19;16.45;;;8.00;;
58376;SDS011;58852;43.460;19.812;2022-08-19T07:02:45;17.50;;;11.98;;
58376;SDS011;58852;43.460;19.812;2022-08-19T07:05:11;18.30;;;11.80;;
58376;SDS011;58852;43.460;19.812;2022-08-19T07:07:37;13.65;;;8.55;;
58376;SDS011;58852;43.460;19.812;2022-08-19T07:10:04;15.57;;;8.52;;
58376;SDS011;58852;43.460;19.812;2022-08-19T07:12:30;15.88;;;8.30;;
58376;SDS011;58852;43.460;19.812;2022-08-19T07:15:00;18.45;;;8.55;;
58376;SDS011;58852;43.460;19.812;2022-08-19T07:17:26;15.45;;;7.95;;
58376;SDS011;58852;43.460;19.812;2022-08-19T07:19:52;22.15;;;14.25;;
58376;SDS011;58852;43.460;19.812;2022-08-19T07:22:18;12.45;;;8.68;;
58376;SDS011;58852;43.460;19.812;2022-08-19T07:24:45;15.35;;;8.23;;
58376;SDS011;58852;43.460;19.812;2022-08-19T07:27:13;20.85;;;8.07;;
58376;SDS011;58852;43.460;19.812;2022-08-19T07:29:39;14.70;;;8.65;;
58376;SDS011;58852;43.460;19.812;2022-08-19T07:32:05;23.45;;;9.63;;
58376;SDS011;58852;43.460;19.812;2022-08-19T07:34:32;14.82;;;8.35;;
58376;SDS011;58852;43.460;19.812;2022-08-19T07:37:02;19.20;;;10.48;;
58376;SDS011;58852;43.460;19.812;2022-08-19T07:39:30;16.30;;;10.02;;
58376;SDS011;58852;43.460;19.812;2022-08-19T07:41:58;19.50;;;9.38;;
58376;SDS011;58852;43.460;19.812;2022-08-19T07:44:25;18.95;;;11.10;;
58376;SDS011;58852;43.460;19.812;2022-08-19T07:46:54;18.75;;;12.25;;
58376;SDS011;58852;43.460;19.812;2022-08-19T07:49:22;18.45;;;10.82;;
58376;SDS011;58852;43.460;19.812;2022-08-19T07:51:50;24.58;;;10.32;;
58376;SDS011;58852;43.460;19.812;2022-08-19T07:54:16;19.23;;;10.73;;
58376;SDS011;58852;43.460;19.812;2022-08-19T07:56:43;18.83;;;10.63;;
58376;SDS011;58852;43.460;19.812;2022-08-19T07:59:09;13.50;;;8.63;;
58376;SDS011;58852;43.460;19.812;2022-08-19T08:01:35;16.60;;;7.60;;
58376;SDS011;58852;43.460;19.812;2022-08-19T08:04:01;11.90;;;6.53;;
58376;SDS011;58852;43.460;19.812;2022-08-19T08:06:46;11.18;;;6.70;;
58376;SDS011;58852;43.460;19.812;2022-08-19T08:09:35;13.65;;;6.40;;
58376;SDS011;58852;43.460;19.812;2022-08-19T08:12:06;16.88;;;6.32;;
58376;SDS011;58852;43.460;19.812;2022-08-19T08:14:44;15.63;;;5.90;;
58376;SDS011;58852;43.460;19.812;2022-08-19T08:17:11;15.02;;;5.75;;
58376;SDS011;58852;43.460;19.812;2022-08-19T08:19:38;18.25;;;7.60;;
58376;SDS011;58852;43.460;19.812;2022-08-19T08:22:06;15.15;;;6.55;;
58376;SDS011;58852;43.460;19.812;2022-08-19T08:24:32;19.27;;;8.25;;
58376;SDS011;58852;43.460;19.812;2022-08-19T08:27:00;14.50;;;6.93;;
58376;SDS011;58852;43.460;19.812;2022-08-19T08:29:27;34.08;;;24.90;;
58376;SDS011;58852;43.460;19.812;2022-08-19T08:31:53;16.15;;;7.97;;
58376;SDS011;58852;43.460;19.812;2022-08-19T08:34:19;14.68;;;8.60;;
58376;SDS011;58852;43.460;19.812;2022-08-19T08:36:46;18.52;;;8.73;;
58376;SDS011;58852;43.460;19.812;2022-08-19T08:39:14;22.50;;;9.75;;
58376;SDS011;58852;43.460;19.812;2022-08-19T08:42:05;24.15;;;9.70;;
58376;SDS011;58852;43.460;19.812;2022-08-19T08:44:39;24.13;;;9.90;;
58376;SDS011;58852;43.460;19.812;2022-08-19T08:47:12;25.42;;;10.02;;
58376;SDS011;58852;43.460;19.812;2022-08-19T08:49:51;18.75;;;8.30;;
58376;SDS011;58852;43.460;19.812;2022-08-19T08:52:20;21.48;;;9.50;;
58376;SDS011;58852;43.460;19.812;2022-08-19T08:54:47;20.67;;;9.77;;
58376;SDS011;58852;43.460;19.812;2022-08-19T08:57:15;22.13;;;9.63;;
58376;SDS011;58852;43.460;19.812;2022-08-19T08:59:43;20.65;;;9.45;;
58376;SDS011;58852;43.460;19.812;2022-08-19T09:02:13;16.45;;;8.48;;
58376;SDS011;58852;43.460;19.812;2022-08-19T09:04:40;23.55;;;9.18;;
58376;SDS011;58852;43.460;19.812;2022-08-19T09:09:52;24.77;;;10.70;;
58376;SDS011;58852;43.460;19.812;2022-08-19T09:15:08;17.00;;;9.10;;
58376;SDS011;58852;43.460;19.812;2022-08-19T09:17:35;20.15;;;9.85;;
58376;SDS011;58852;43.460;19.812;2022-08-19T09:22:39;22.40;;;8.77;;
58376;SDS011;58852;43.460;19.812;2022-08-19T09:27:36;22.10;;;9.23;;
58376;SDS011;58852;43.460;19.812;2022-08-19T09:30:03;22.42;;;8.98;;
58376;SDS011;58852;43.460;19.812;2022-08-19T09:32:30;35.70;;;9.75;;
58376;SDS011;58852;43.460;19.812;2022-08-19T09:34:56;20.60;;;8.88;;
58376;SDS011;58852;43.460;19.812;2022-08-19T09:37:23;18.20;;;9.70;;
58376;SDS011;58852;43.460;19.812;2022-08-19T09:39:50;18.52;;;9.23;;
58376;SDS011;58852;43.460;19.812;2022-08-19T09:42:16;21.58;;;10.23;;
58376;SDS011;58852;43.460;19.812;2022-08-19T09:44:42;21.17;;;8.25;;
58376;SDS011;58852;43.460;19.812;2022-08-19T09:47:09;17.17;;;8.57;;
58376;SDS011;58852;43.460;19.812;2022-08-19T09:49:36;22.80;;;8.77;;
58376;SDS011;58852;43.460;19.812;2022-08-19T09:52:03;23.77;;;9.18;;
58376;SDS011;58852;43.460;19.812;2022-08-19T09:54:30;27.02;;;10.88;;
58376;SDS011;58852;43.460;19.812;2022-08-19T09:56:57;14.40;;;7.22;;
58376;SDS011;58852;43.460;19.812;2022-08-19T09:59:25;25.70;;;8.32;;
58376;SDS011;58852;43.460;19.812;2022-08-19T10:01:51;17.63;;;8.95;;
58376;SDS011;58852;43.460;19.812;2022-08-19T10:04:18;19.70;;;8.50;;
58376;SDS011;58852;43.460;19.812;2022-08-19T10:06:46;22.00;;;7.80;;
58376;SDS011;58852;43.460;19.812;2022-08-19T10:09:13;19.88;;;8.35;;
58376;SDS011;58852;43.460;19.812;2022-08-19T10:11:40;28.70;;;9.95;;
58376;SDS011;58852;43.460;19.812;2022-08-19T10:14:06;19.80;;;7.82;;
58376;SDS011;58852;43.460;19.812;2022-08-19T10:16:33;20.98;;;9.30;;
58376;SDS011;58852;43.460;19.812;2022-08-19T10:19:00;15.00;;;7.18;;
58376;SDS011;58852;43.460;19.812;2022-08-19T10:21:28;16.83;;;7.63;;
58376;SDS011;58852;43.460;19.812;2022-08-19T10:23:56;23.13;;;8.60;;
58376;SDS011;58852;43.460;19.812;2022-08-19T10:26:24;21.27;;;7.90;;
58376;SDS011;58852;43.460;19.812;2022-08-19T10:28:50;24.10;;;8.70;;
58376;SDS011;58852;43.460;19.812;2022-08-19T10:31:35;24.52;;;8.63;;
58376;SDS011;58852;43.460;19.812;2022-08-19T10:34:01;21.55;;;6.95;;
58376;SDS011;58852;43.460;19.812;2022-08-19T10:36:32;20.60;;;6.75;;
58376;SDS011;58852;43.460;19.812;2022-08-19T10:41:17;31.95;;;9.90;;
58376;SDS011;58852;43.460;19.812;2022-08-19T10:43:44;26.13;;;10.60;;
58376;SDS011;58852;43.460;19.812;2022-08-19T10:46:11;35.97;;;11.27;;
58376;SDS011;58852;43.460;19.812;2022-08-19T10:48:38;25.30;;;10.75;;
58376;SDS011;58852;43.460;19.812;2022-08-19T10:51:04;27.38;;;10.20;;
58376;SDS011;58852;43.460;19.812;2022-08-19T10:53:49;20.55;;;8.18;;
58376;SDS011;58852;43.460;19.812;2022-08-19T10:56:16;23.55;;;9.40;;
58376;SDS011;58852;43.460;19.812;2022-08-19T10:59:01;20.55;;;8.13;;
58376;SDS011;58852;43.460;19.812;2022-08-19T11:01:28;21.60;;;6.57;;
58376;SDS011;58852;43.460;19.812;2022-08-19T11:03:55;22.45;;;8.93;;
58376;SDS011;58852;43.460;19.812;2022-08-19T11:06:22;27.73;;;9.98;;
58376;SDS011;58852;43.460;19.812;2022-08-19T11:08:49;24.50;;;10.18;;
58376;SDS011;58852;43.460;19.812;2022-08-19T11:11:16;18.83;;;7.50;;
58376;SDS011;58852;43.460;19.812;2022-08-19T11:13:42;23.63;;;6.88;;
58376;SDS011;58852;43.460;19.812;2022-08-19T11:16:13;26.73;;;8.40;;
58376;SDS011;58852;43.460;19.812;2022-08-19T11:18:47;22.92;;;7.65;;
58376;SDS011;58852;43.460;19.812;2022-08-19T11:21:24;24.40;;;7.47;;
58376;SDS011;58852;43.460;19.812;2022-08-19T11:23:52;20.00;;;7.40;;
58376;SDS011;58852;43.460;19.812;2022-08-19T11:26:18;21.17;;;7.38;;
58376;SDS011;58852;43.460;19.812;2022-08-19T11:28:45;31.58;;;8.75;;
58376;SDS011;58852;43.460;19.812;2022-08-19T11:31:12;21.52;;;8.43;;
58376;SDS011;58852;43.460;19.812;2022-08-19T11:33:38;23.40;;;9.75;;
58376;SDS011;58852;43.460;19.812;2022-08-19T11:36:05;34.03;;;11.45;;
58376;SDS011;58852;43.460;19.812;2022-08-19T11:38:32;30.88;;;9.45;;
58376;SDS011;58852;43.460;19.812;2022-08-19T11:41:00;33.80;;;9.68;;
58376;SDS011;58852;43.460;19.812;2022-08-19T11:43:27;28.45;;;9.98;;
58376;SDS011;58852;43.460;19.812;2022-08-19T11:45:54;23.40;;;7.82;;
58376;SDS011;58852;43.460;19.812;2022-08-19T11:48:20;22.98;;;8.75;;
58376;SDS011;58852;43.460;19.812;2022-08-19T11:50:47;28.40;;;12.23;;
58376;SDS011;58852;43.460;19.812;2022-08-19T11:53:13;20.15;;;9.25;;
58376;SDS011;58852;43.460;19.812;2022-08-19T11:55:39;35.33;;;9.32;;
58376;SDS011;58852;43.460;19.812;2022-08-19T11:58:07;31.33;;;9.48;;
58376;SDS011;58852;43.460;19.812;2022-08-19T12:00:34;25.23;;;8.38;;
58376;SDS011;58852;43.460;19.812;2022-08-19T12:03:01;28.85;;;9.90;;
58376;SDS011;58852;43.460;19.812;2022-08-19T12:05:27;29.60;;;12.52;;
58376;SDS011;58852;43.460;19.812;2022-08-19T12:07:53;31.23;;;9.82;;
58376;SDS011;58852;43.460;19.812;2022-08-19T12:10:20;28.38;;;9.35;;
58376;SDS011;58852;43.460;19.812;2022-08-19T12:12:46;31.67;;;8.02;;
58376;SDS011;58852;43.460;19.812;2022-08-19T12:15:12;29.77;;;7.57;;
58376;SDS011;58852;43.460;19.812;2022-08-19T12:17:39;26.20;;;7.13;;
58376;SDS011;58852;43.460;19.812;2022-08-19T12:20:07;34.03;;;8.48;;
58376;SDS011;58852;43.460;19.812;2022-08-19T12:22:34;22.85;;;7.50;;
58376;SDS011;58852;43.460;19.812;2022-08-19T12:25:00;24.38;;;6.25;;
58376;SDS011;58852;43.460;19.812;2022-08-19T12:27:27;23.38;;;7.50;;
58376;SDS011;58852;43.460;19.812;2022-08-19T12:29:53;24.52;;;7.50;;
58376;SDS011;58852;43.460;19.812;2022-08-19T12:32:19;19.67;;;6.38;;
58376;SDS011;58852;43.460;19.812;2022-08-19T12:34:46;16.40;;;5.80;;
58376;SDS011;58852;43.460;19.812;2022-08-19T12:37:12;23.83;;;6.85;;
58376;SDS011;58852;43.460;19.812;2022-08-19T12:39:40;21.58;;;6.68;;
58376;SDS011;58852;43.460;19.812;2022-08-19T12:42:07;32.25;;;9.13;;
58376;SDS011;58852;43.460;19.812;2022-08-19T12:44:34;21.88;;;7.10;;
58376;SDS011;58852;43.460;19.812;2022-08-19T12:47:00;21.20;;;6.22;;
58376;SDS011;58852;43.460;19.812;2022-08-19T12:49:28;29.27;;;15.95;;
58376;SDS011;58852;43.460;19.812;2022-08-19T12:51:54;31.02;;;8.77;;
58376;SDS011;58852;43.460;19.812;2022-08-19T12:54:20;23.13;;;8.05;;
58376;SDS011;58852;43.460;19.812;2022-08-19T12:56:46;21.95;;;10.05;;
58376;SDS011;58852;43.460;19.812;2022-08-19T12:59:13;25.15;;;8.85;;
58376;SDS011;58852;43.460;19.812;2022-08-19T13:01:41;26.50;;;7.22;;
58376;SDS011;58852;43.460;19.812;2022-08-19T13:04:08;22.63;;;7.80;;
58376;SDS011;58852;43.460;19.812;2022-08-19T13:06:35;27.13;;;8.00;;
58376;SDS011;58852;43.460;19.812;2022-08-19T13:09:02;23.90;;;8.80;;
58376;SDS011;58852;43.460;19.812;2022-08-19T13:11:28;22.45;;;7.32;;
58376;SDS011;58852;43.460;19.812;2022-08-19T13:13:57;27.23;;;8.05;;
58376;SDS011;58852;43.460;19.812;2022-08-19T13:16:24;21.08;;;7.90;;
58376;SDS011;58852;43.460;19.812;2022-08-19T13:18:51;19.52;;;8.52;;
58376;SDS011;58852;43.460;19.812;2022-08-19T13:21:17;22.73;;;7.50;;
58376;SDS011;58852;43.460;19.812;2022-08-19T13:23:45;23.30;;;8.10;;
58376;SDS011;58852;43.460;19.812;2022-08-19T13:26:11;27.92;;;8.15;;
58376;SDS011;58852;43.460;19.812;2022-08-19T13:28:38;23.90;;;8.52;;
58376;SDS011;58852;43.460;19.812;2022-08-19T13:31:24;26.20;;;8.02;;
58376;SDS011;58852;43.460;19.812;2022-08-19T13:34:09;31.35;;;7.10;;
58376;SDS011;58852;43.460;19.812;2022-08-19T13:36:36;25.85;;;9.13;;
58376;SDS011;58852;43.460;19.812;2022-08-19T13:39:03;36.80;;;15.77;;
58376;SDS011;58852;43.460;19.812;2022-08-19T13:41:29;23.88;;;7.80;;
58376;SDS011;58852;43.460;19.812;2022-08-19T13:43:55;27.08;;;7.72;;
58376;SDS011;58852;43.460;19.812;2022-08-19T13:46:22;35.83;;;8.77;;
58376;SDS011;58852;43.460;19.812;2022-08-19T13:48:48;25.15;;;9.35;;
58376;SDS011;58852;43.460;19.812;2022-08-19T13:51:15;32.75;;;7.95;;
58376;SDS011;58852;43.460;19.812;2022-08-19T13:53:41;23.80;;;7.22;;
58376;SDS011;58852;43.460;19.812;2022-08-19T13:56:10;27.30;;;8.00;;
58376;SDS011;58852;43.460;19.812;2022-08-19T13:58:37;30.10;;;8.70;;
58376;SDS011;58852;43.460;19.812;2022-08-19T14:01:04;32.10;;;9.07;;
58376;SDS011;58852;43.460;19.812;2022-08-19T14:03:30;34.45;;;11.07;;
58376;SDS011;58852;43.460;19.812;2022-08-19T14:05:57;27.88;;;9.00;;
58376;SDS011;58852;43.460;19.812;2022-08-19T14:08:24;32.90;;;8.27;;
58376;SDS011;58852;43.460;19.812;2022-08-19T14:10:53;19.40;;;7.43;;
58376;SDS011;58852;43.460;19.812;2022-08-19T14:13:19;32.22;;;9.10;;
58376;SDS011;58852;43.460;19.812;2022-08-19T14:15:46;24.05;;;7.63;;
58376;SDS011;58852;43.460;19.812;2022-08-19T14:18:13;30.70;;;8.55;;
58376;SDS011;58852;43.460;19.812;2022-08-19T14:20:39;25.35;;;8.88;;
58376;SDS011;58852;43.460;19.812;2022-08-19T14:23:05;29.17;;;9.65;;
58376;SDS011;58852;43.460;19.812;2022-08-19T14:25:32;19.80;;;7.40;;
58376;SDS011;58852;43.460;19.812;2022-08-19T14:27:59;27.08;;;8.50;;
58376;SDS011;58852;43.460;19.812;2022-08-19T14:30:26;29.00;;;8.65;;
58376;SDS011;58852;43.460;19.812;2022-08-19T14:32:54;24.33;;;8.63;;
58376;SDS011;58852;43.460;19.812;2022-08-19T14:35:20;28.05;;;8.23;;
58376;SDS011;58852;43.460;19.812;2022-08-19T14:37:47;29.40;;;9.63;;
58376;SDS011;58852;43.460;19.812;2022-08-19T14:40:14;22.35;;;8.38;;
58376;SDS011;58852;43.460;19.812;2022-08-19T14:42:41;18.65;;;6.93;;